createdAt,value
2023-04-18T00:03:57.609Z,13.81
2023-04-18T00:06:39.296Z,13.83
2023-04-18T00:09:13.831Z,13.85
2023-04-18T00:11:52.183Z,13.95
2023-04-18T00:14:54.160Z,14.03
2023-04-18T00:17:33.521Z,13.88
2023-04-18T00:20:12.115Z,13.96
2023-04-18T00:23:02.502Z,14.00
2023-04-18T00:26:04.982Z,14.05
2023-04-18T00:28:45.116Z,14.08
2023-04-18T00:32:46.837Z,14.12
2023-04-18T00:35:07.068Z,14.07
2023-04-18T00:37:35.095Z,14.15
2023-04-18T00:40:02.223Z,14.16
2023-04-18T00:42:32.233Z,14.14
2023-04-18T00:45:01.669Z,14.09
2023-04-18T00:47:31.668Z,14.18
2023-04-18T00:50:28.855Z,14.22
2023-04-18T00:53:01.478Z,14.26
2023-04-18T00:55:58.962Z,14.13
2023-04-18T00:58:59.753Z,14.09
2023-04-18T01:01:47.496Z,13.99
2023-04-18T01:04:30.105Z,14.08
2023-04-18T01:09:46.691Z,14.21
2023-04-18T01:12:16.424Z,14.15
2023-04-18T01:15:12.903Z,14.24
2023-04-18T01:17:46.432Z,14.23
2023-04-18T01:20:14.014Z,14.15
2023-04-18T01:22:53.669Z,14.23
2023-04-18T01:25:43.624Z,14.19
2023-04-18T01:28:20.158Z,14.24
2023-04-18T01:33:41.291Z,14.35
2023-04-18T01:36:15.742Z,14.27
2023-04-18T01:39:06.225Z,14.34
2023-04-18T01:41:41.388Z,14.35
2023-04-18T01:44:17.972Z,14.46
2023-04-18T01:47:15.853Z,14.40
2023-04-18T01:49:52.598Z,14.36
2023-04-18T01:52:49.977Z,14.33
2023-04-18T01:55:28.865Z,14.44
2023-04-18T01:57:56.088Z,14.54
2023-04-18T02:00:24.476Z,14.61
2023-04-18T02:02:54.810Z,14.60
2023-04-18T02:05:22.005Z,14.49
2023-04-18T02:07:52.042Z,14.52
2023-04-18T02:10:28.721Z,14.59
2023-04-18T02:13:01.377Z,14.61
2023-04-18T02:15:29.704Z,14.63
2023-04-18T02:18:03.126Z,14.57
2023-04-18T02:20:37.595Z,14.47
2023-04-18T02:23:11.915Z,14.56
2023-04-18T02:25:40.024Z,14.43
2023-04-18T02:28:17.105Z,14.52
2023-04-18T02:30:44.159Z,14.43
2023-04-18T02:33:14.823Z,14.36
2023-04-18T02:35:42.750Z,14.33
2023-04-18T02:38:17.458Z,14.37
2023-04-18T02:40:44.565Z,14.41
2023-04-18T02:43:11.609Z,14.31
2023-04-18T02:45:38.836Z,14.27
2023-04-18T02:48:05.837Z,14.19
2023-04-18T02:50:32.879Z,14.35
2023-04-18T02:53:00.477Z,14.24
2023-04-18T02:55:35.788Z,14.31
2023-04-18T02:58:02.894Z,14.34
2023-04-18T03:00:29.930Z,14.35
2023-04-18T03:03:00.288Z,14.31
2023-04-18T03:05:27.346Z,14.16
2023-04-18T03:07:57.123Z,14.12
2023-04-18T03:10:24.314Z,14.15
2023-04-18T03:12:54.457Z,14.15
2023-04-18T03:15:24.362Z,14.24
2023-04-18T03:17:51.577Z,14.05
2023-04-18T03:20:21.258Z,14.05
2023-04-18T03:22:48.277Z,14.04
2023-04-18T03:25:15.782Z,13.89
2023-04-18T03:27:47.745Z,14.06
2023-04-18T03:30:15.879Z,13.88
2023-04-18T03:32:49.182Z,13.82
2023-04-18T03:35:29.931Z,13.81
2023-04-18T03:37:57.814Z,13.94
2023-04-18T03:40:25.150Z,13.76
2023-04-18T03:42:52.211Z,13.71
2023-04-18T03:45:19.133Z,13.84
2023-04-18T03:47:46.472Z,13.88
2023-04-18T03:50:13.440Z,13.98
2023-04-18T03:52:40.558Z,13.88
2023-04-18T03:55:07.812Z,13.81
2023-04-18T03:57:37.969Z,13.76
2023-04-18T04:00:06.179Z,13.88
2023-04-18T04:02:36.593Z,13.73
2023-04-18T04:05:03.870Z,13.76
2023-04-18T04:07:32.312Z,13.74
2023-04-18T04:09:59.355Z,13.72
2023-04-18T04:12:29.442Z,13.61
2023-04-18T04:15:07.663Z,13.70
2023-04-18T04:17:37.722Z,13.67
2023-04-18T04:20:05.636Z,13.56
2023-04-18T04:22:33.057Z,13.56
2023-04-18T04:25:06.832Z,13.56
2023-04-18T04:27:39.263Z,13.64
2023-04-18T04:30:11.914Z,13.59
2023-04-18T04:32:43.278Z,13.50
2023-04-18T04:35:14.596Z,13.47
2023-04-18T04:37:48.201Z,13.53
2023-04-18T04:40:15.958Z,13.49
2023-04-18T04:42:46.203Z,13.44
2023-04-18T04:45:15.947Z,13.52
2023-04-18T04:47:49.127Z,13.50
2023-04-18T04:50:16.162Z,13.63
2023-04-18T04:52:49.498Z,13.59
2023-04-18T04:55:17.709Z,13.83
2023-04-18T04:57:48.076Z,13.83
2023-04-18T05:00:21.932Z,13.87
2023-04-18T05:02:49.711Z,13.91
2023-04-18T05:05:17.929Z,13.82
2023-04-18T05:07:47.953Z,13.77
2023-04-18T05:10:25.404Z,13.48
2023-04-18T05:13:04.797Z,13.52
2023-04-18T05:15:35.298Z,13.49
2023-04-18T05:18:10.062Z,13.63
2023-04-18T05:20:38.725Z,13.65
2023-04-18T05:23:05.721Z,13.52
2023-04-18T05:25:35.921Z,13.61
2023-04-18T05:28:09.312Z,13.66
2023-04-18T05:31:04.357Z,13.51
2023-04-18T05:33:33.937Z,13.57
2023-04-18T05:36:04.334Z,13.57
2023-04-18T05:38:31.391Z,13.69
2023-04-18T05:41:00.584Z,13.72
2023-04-18T05:43:29.121Z,13.82
2023-04-18T05:45:58.957Z,13.87
2023-04-18T05:48:26.143Z,13.85
2023-04-18T05:50:59.431Z,13.89
2023-04-18T05:53:33.945Z,13.97
2023-04-18T05:56:04.004Z,13.97
2023-04-18T05:58:33.840Z,14.08
2023-04-18T06:01:01.067Z,14.01
2023-04-18T06:03:28.469Z,14.21
2023-04-18T06:06:00.499Z,14.33
2023-04-18T06:08:27.714Z,14.45
2023-04-18T06:10:54.753Z,14.52
2023-04-18T06:13:27.819Z,14.48
2023-04-18T06:15:55.004Z,14.52
2023-04-18T06:18:22.076Z,14.53
2023-04-18T06:20:49.188Z,14.69
2023-04-18T06:23:22.087Z,14.77
2023-04-18T06:25:55.410Z,14.82
2023-04-18T06:28:27.523Z,14.76
2023-04-18T06:30:57.499Z,14.74
2023-04-18T06:33:36.849Z,14.70
2023-04-18T06:36:05.790Z,14.71
2023-04-18T06:38:38.869Z,14.84
2023-04-18T06:41:05.948Z,14.74
2023-04-18T06:43:52.039Z,14.85
2023-04-18T06:46:28.735Z,14.79
2023-04-18T06:48:57.460Z,14.80
2023-04-18T06:51:24.657Z,14.79
2023-04-18T06:53:54.641Z,15.00
2023-04-18T06:56:21.902Z,15.01
2023-04-18T06:58:53.185Z,15.06
2023-04-18T07:01:20.488Z,15.16
2023-04-18T07:03:47.677Z,15.22
2023-04-18T07:06:15.910Z,15.35
2023-04-18T07:08:49.064Z,15.33
2023-04-18T07:11:18.654Z,15.37
2023-04-18T07:13:49.661Z,15.52
2023-04-18T07:16:19.982Z,15.50
2023-04-18T07:18:51.295Z,15.54
2023-04-18T07:21:25.863Z,15.60
2023-04-18T07:23:56.548Z,15.72
2023-04-18T07:26:43.294Z,15.74
2023-04-18T07:29:10.225Z,15.75
2023-04-18T07:31:39.455Z,15.85
2023-04-18T07:34:06.608Z,15.86
2023-04-18T07:36:42.461Z,15.90
2023-04-18T07:39:09.842Z,15.84
2023-04-18T07:41:36.829Z,15.83
2023-04-18T07:44:16.298Z,15.84
2023-04-18T07:46:43.782Z,16.02
2023-04-18T07:49:14.092Z,16.18
2023-04-18T07:51:44.504Z,16.33
2023-04-18T07:54:11.669Z,16.30
2023-04-18T07:56:38.916Z,16.48
2023-04-18T07:59:06.140Z,16.44
2023-04-18T08:01:33.511Z,16.53
2023-04-18T08:04:02.337Z,16.62
2023-04-18T08:06:30.996Z,16.61
2023-04-18T08:08:59.622Z,16.58
2023-04-18T08:11:32.605Z,16.71
2023-04-18T08:14:00.089Z,16.62
2023-04-18T08:16:27.702Z,16.56
2023-04-18T08:18:54.704Z,16.57
2023-04-18T08:21:24.982Z,16.67
2023-04-18T08:23:52.085Z,16.43
2023-04-18T08:26:28.261Z,16.40
2023-04-18T08:29:02.820Z,16.58
2023-04-18T08:31:31.894Z,16.55
2023-04-18T08:33:59.047Z,16.51
2023-04-18T08:36:26.649Z,16.63
2023-04-18T08:38:56.701Z,16.80
2023-04-18T08:41:27.725Z,16.99
2023-04-18T08:43:59.323Z,17.10
2023-04-18T08:46:36.120Z,16.93
2023-04-18T08:49:06.466Z,16.89
2023-04-18T08:51:34.782Z,17.02
2023-04-18T08:54:06.570Z,16.83
2023-04-18T08:56:38.060Z,16.67
2023-04-18T08:59:08.440Z,16.56
2023-04-18T09:02:07.905Z,16.52
2023-04-18T09:04:42.444Z,16.53
2023-04-18T09:07:17.273Z,16.54
2023-04-18T09:09:58.027Z,16.57
2023-04-18T09:12:28.037Z,16.50
2023-04-18T09:15:16.940Z,16.60
2023-04-18T09:17:54.427Z,16.62
2023-04-18T09:20:47.860Z,16.55
2023-04-18T09:23:34.023Z,16.54
2023-04-18T09:26:01.012Z,16.65
2023-04-18T09:28:43.149Z,16.74
2023-04-18T09:31:13.356Z,16.72
2023-04-18T09:33:57.145Z,16.65
2023-04-18T09:36:30.624Z,16.55
2023-04-18T09:39:04.506Z,16.64
2023-04-18T09:41:39.745Z,16.72
2023-04-18T09:44:25.223Z,16.86
2023-04-18T09:46:52.574Z,16.97
2023-04-18T09:49:23.617Z,17.06
2023-04-18T09:52:04.696Z,17.17
2023-04-18T09:54:38.723Z,17.21
2023-04-18T09:57:11.609Z,17.46
2023-04-18T09:59:51.816Z,17.33
2023-04-18T10:02:26.788Z,17.32
2023-04-18T10:04:56.303Z,17.61
2023-04-18T10:07:43.678Z,18.06
2023-04-18T10:10:11.066Z,18.11
2023-04-18T10:12:41.913Z,18.08
2023-04-18T10:15:11.880Z,18.18
2023-04-18T10:20:35.248Z,17.47
2023-04-18T10:23:31.262Z,17.29
2023-04-18T10:25:59.398Z,17.40
2023-04-18T10:28:33.319Z,17.41
2023-04-18T10:31:10.185Z,17.62
2023-04-18T10:34:05.114Z,17.58
2023-04-18T10:36:38.609Z,17.37
2023-04-18T10:39:57.570Z,17.54
2023-04-18T10:42:59.902Z,17.75
2023-04-18T10:45:34.184Z,17.46
2023-04-18T10:51:18.106Z,17.26
2023-04-18T10:53:57.817Z,17.40
2023-04-18T10:56:26.447Z,17.43
2023-04-18T10:59:02.168Z,17.22
2023-04-18T11:01:37.554Z,17.10
2023-04-18T11:04:14.544Z,17.21
2023-04-18T11:06:53.559Z,17.86
2023-04-18T11:09:24.244Z,17.68
2023-04-18T11:12:12.458Z,17.61
2023-04-18T11:14:45.016Z,17.61
2023-04-18T11:17:22.448Z,17.47
2023-04-18T11:19:50.373Z,17.53
2023-04-18T11:22:21.313Z,17.74
2023-04-18T11:25:14.357Z,17.85
2023-04-18T11:27:43.318Z,18.24
2023-04-18T11:30:11.722Z,18.28
2023-04-18T11:32:41.666Z,18.49
2023-04-18T11:35:12.760Z,18.33
2023-04-18T11:37:46.633Z,17.92
2023-04-18T11:40:14.642Z,17.87
2023-04-18T11:42:42.020Z,17.76
2023-04-18T11:45:21.055Z,17.68
2023-04-18T11:47:56.772Z,17.58
2023-04-18T11:50:24.013Z,17.44
2023-04-18T11:52:53.509Z,17.47
2023-04-18T11:55:23.207Z,17.43
2023-04-18T11:58:04.695Z,17.44
2023-04-18T12:00:43.661Z,17.39
2023-04-18T12:03:19.930Z,17.56
2023-04-18T12:05:51.001Z,17.61
2023-04-18T12:08:21.904Z,17.46
2023-04-18T12:10:53.917Z,17.52
2023-04-18T12:13:32.736Z,17.46
2023-04-18T12:16:02.353Z,17.53
2023-04-18T12:18:32.810Z,17.51
2023-04-18T12:21:09.023Z,17.56
2023-04-18T12:23:51.740Z,17.54
2023-04-18T12:26:20.749Z,17.54
2023-04-18T12:28:51.380Z,17.48
2023-04-18T12:31:31.195Z,17.41
2023-04-18T12:34:01.728Z,17.37
2023-04-18T12:36:39.603Z,17.47
2023-04-18T12:39:07.751Z,17.55
2023-04-18T12:41:48.962Z,17.51
2023-04-18T12:44:16.769Z,17.29
2023-04-18T12:46:46.837Z,17.14
2023-04-18T12:49:13.746Z,17.13
2023-04-18T12:52:18.733Z,17.30
2023-04-18T12:54:51.659Z,17.51
2023-04-18T12:57:26.187Z,17.86
2023-04-18T12:59:53.266Z,17.72
2023-04-18T13:02:22.156Z,17.62
2023-04-18T13:04:52.196Z,17.90
2023-04-18T13:07:19.816Z,18.32
2023-04-18T13:09:46.956Z,18.11
2023-04-18T13:12:18.631Z,18.16
2023-04-18T13:14:45.534Z,17.96
2023-04-18T13:17:16.433Z,17.83
2023-04-18T13:19:46.063Z,17.87
2023-04-18T13:22:13.152Z,17.87
2023-04-18T13:24:46.153Z,17.93
2023-04-18T13:27:20.053Z,17.69
2023-04-18T13:29:49.337Z,17.71
2023-04-18T13:32:16.359Z,17.98
2023-04-18T13:34:52.727Z,17.72
2023-04-18T13:37:19.821Z,17.68
2023-04-18T13:39:46.794Z,17.77
2023-04-18T13:42:15.927Z,17.66
2023-04-18T13:44:43.082Z,17.75
2023-04-18T13:47:09.975Z,17.74
2023-04-18T13:50:00.230Z,17.68
2023-04-18T13:52:32.128Z,17.62
2023-04-18T13:55:02.196Z,17.52
2023-04-18T13:57:37.267Z,17.67
2023-04-18T14:00:16.528Z,17.71
2023-04-18T14:02:46.818Z,17.91
2023-04-18T14:05:14.036Z,17.92
2023-04-18T14:07:45.775Z,17.79
2023-04-18T14:10:21.900Z,18.31
2023-04-18T14:12:54.954Z,18.25
2023-04-18T14:15:21.949Z,18.07
2023-04-18T14:17:55.865Z,17.81
2023-04-18T14:20:23.029Z,17.67
2023-04-18T14:23:05.006Z,17.67
2023-04-18T14:25:31.904Z,17.65
2023-04-18T14:28:24.507Z,17.59
2023-04-18T14:31:02.747Z,17.49
2023-04-18T14:33:32.758Z,17.51
2023-04-18T14:36:05.736Z,17.54
2023-04-18T14:38:38.120Z,17.57
2023-04-18T14:41:07.935Z,17.57
2023-04-18T14:43:34.897Z,17.52
2023-04-18T14:46:01.732Z,17.49
2023-04-18T14:48:31.612Z,17.48
2023-04-18T14:50:59.641Z,17.49
2023-04-18T14:53:27.567Z,17.47
2023-04-18T14:55:54.946Z,17.59
2023-04-18T14:58:22.065Z,17.58
2023-04-18T15:00:58.090Z,17.59
2023-04-18T15:03:30.650Z,17.69
2023-04-18T15:05:57.979Z,17.90
2023-04-18T15:08:26.459Z,17.86
2023-04-18T15:10:53.307Z,17.65
2023-04-18T15:13:24.132Z,17.57
2023-04-18T15:15:55.750Z,17.66
2023-04-18T15:18:22.760Z,17.79
2023-04-18T15:20:49.723Z,17.82
2023-04-18T15:23:25.041Z,17.67
2023-04-18T15:25:51.841Z,17.72
2023-04-18T15:31:08.338Z,18.54
2023-04-18T15:33:38.019Z,18.61
2023-04-18T15:36:07.599Z,18.58
2023-04-18T15:38:34.475Z,18.27
2023-04-18T15:41:01.352Z,17.98
2023-04-18T15:43:32.494Z,17.96
2023-04-18T15:46:00.441Z,18.10
2023-04-18T15:48:34.648Z,18.10
2023-04-18T15:51:05.605Z,17.87
2023-04-18T15:53:32.903Z,17.84
2023-04-18T15:56:19.432Z,17.75
2023-04-18T15:58:46.793Z,17.96
2023-04-18T16:01:16.167Z,17.89
2023-04-18T16:03:43.949Z,17.78
2023-04-18T16:06:15.378Z,17.74
2023-04-18T16:08:51.588Z,17.68
2023-04-18T16:11:22.124Z,17.68
2023-04-18T16:13:53.779Z,17.78
2023-04-18T16:16:29.112Z,17.81
2023-04-18T16:18:55.913Z,17.84
2023-04-18T16:21:31.602Z,17.79
2023-04-18T16:24:06.996Z,17.73
2023-04-18T16:26:34.008Z,17.69
2023-04-18T16:29:05.737Z,17.56
2023-04-18T16:31:33.998Z,17.69
2023-04-18T16:34:16.729Z,18.06
2023-04-18T16:36:43.685Z,18.11
2023-04-18T16:39:10.615Z,18.32
2023-04-18T16:41:37.485Z,18.31
2023-04-18T16:44:04.578Z,18.37
2023-04-18T16:46:38.472Z,18.46
2023-04-18T16:49:05.825Z,18.67
2023-04-18T16:51:32.895Z,19.03
2023-04-18T16:54:07.735Z,19.48
2023-04-18T16:56:39.409Z,19.76
2023-04-18T16:59:13.169Z,19.60
2023-04-18T17:01:40.100Z,19.24
2023-04-18T17:04:10.212Z,18.79
2023-04-18T17:06:45.118Z,18.54
2023-04-18T17:09:24.064Z,18.37
2023-04-18T17:11:54.432Z,18.19
2023-04-18T17:14:25.156Z,18.02
2023-04-18T17:16:53.757Z,17.84
2023-04-18T17:19:23.835Z,17.77
2023-04-18T17:21:54.116Z,17.64
2023-04-18T17:24:33.710Z,17.72
2023-04-18T17:27:06.459Z,17.75
2023-04-18T17:29:35.319Z,17.68
2023-04-18T17:32:06.341Z,17.71
2023-04-18T17:34:43.329Z,17.73
2023-04-18T17:37:14.913Z,17.73
2023-04-18T17:39:49.137Z,17.79
2023-04-18T17:45:02.610Z,17.70
2023-04-18T17:47:33.830Z,17.62
2023-04-18T17:50:10.740Z,17.62
2023-04-18T17:52:37.999Z,17.56
2023-04-18T17:55:12.142Z,17.55
2023-04-18T17:57:43.255Z,17.39
2023-04-18T18:00:14.648Z,17.45
2023-04-18T18:02:47.719Z,17.48
2023-04-18T18:05:20.057Z,17.50
2023-04-18T18:07:48.163Z,17.63
2023-04-18T18:10:26.406Z,17.65
2023-04-18T18:12:53.184Z,17.62
2023-04-18T18:15:20.381Z,17.67
2023-04-18T18:17:51.283Z,17.71
2023-04-18T18:20:18.639Z,17.67
2023-04-18T18:22:48.747Z,17.55
2023-04-18T18:25:15.709Z,17.63
2023-04-18T18:27:42.873Z,17.57
2023-04-18T18:30:09.996Z,17.39
2023-04-18T18:32:36.973Z,17.29
2023-04-18T18:35:12.485Z,17.18
2023-04-18T18:37:53.180Z,17.15
2023-04-18T18:40:21.335Z,17.12
2023-04-18T18:42:51.585Z,17.06
2023-04-18T18:45:19.949Z,17.05
2023-04-18T18:47:52.663Z,17.08
2023-04-18T18:50:22.680Z,17.06
2023-04-18T18:52:52.602Z,17.11
2023-04-18T18:55:19.551Z,17.18
2023-04-18T18:57:56.517Z,17.12
2023-04-18T19:00:23.518Z,17.06
2023-04-18T19:02:50.551Z,17.03
2023-04-18T19:05:18.074Z,17.03
2023-04-18T19:07:46.111Z,17.02
2023-04-18T19:10:13.040Z,17.00
2023-04-18T19:12:39.906Z,17.01
2023-04-18T19:15:10.335Z,17.04
2023-04-18T19:17:40.033Z,16.98
2023-04-18T19:20:07.685Z,16.97
2023-04-18T19:22:38.241Z,17.01
2023-04-18T19:25:09.210Z,16.98
2023-04-18T19:27:36.518Z,17.26
2023-04-18T19:30:03.620Z,17.04
2023-04-18T19:32:34.653Z,17.07
2023-04-18T19:35:04.839Z,16.92
2023-04-18T19:37:34.645Z,16.90
2023-04-18T19:40:02.993Z,16.89
2023-04-18T19:42:29.952Z,16.83
2023-04-18T19:45:06.542Z,16.65
2023-04-18T19:47:34.227Z,16.47
2023-04-18T19:50:08.765Z,16.39
2023-04-18T19:52:36.548Z,16.41
2023-04-18T19:55:03.570Z,16.32
2023-04-18T19:57:39.161Z,16.25
2023-04-18T20:00:16.210Z,16.18
2023-04-18T20:02:44.696Z,16.21
2023-04-18T20:05:13.194Z,16.38
2023-04-18T20:07:43.194Z,16.25
2023-04-18T20:10:16.237Z,16.24
2023-04-18T20:12:50.217Z,16.08
2023-04-18T20:15:17.252Z,15.90
2023-04-18T20:17:44.093Z,15.84
2023-04-18T20:20:14.283Z,15.76
2023-04-18T20:22:48.049Z,15.75
2023-04-18T20:25:14.932Z,15.61
2023-04-18T20:27:54.503Z,15.60
2023-04-18T20:30:22.499Z,15.59
2023-04-18T20:32:52.555Z,15.59
2023-04-18T20:35:28.516Z,15.66
2023-04-18T20:37:55.772Z,15.69
2023-04-18T20:40:30.598Z,15.61
2023-04-18T20:43:07.024Z,15.56
2023-04-18T20:45:37.832Z,15.57
2023-04-18T20:48:10.936Z,15.65
2023-04-18T20:50:44.057Z,15.61
2023-04-18T20:53:13.944Z,15.60
2023-04-18T20:55:44.046Z,15.56
2023-04-18T20:58:14.992Z,15.43
2023-04-18T21:00:50.483Z,15.41
2023-04-18T21:03:19.939Z,15.40
2023-04-18T21:05:47.230Z,15.35
2023-04-18T21:08:14.158Z,15.52
2023-04-18T21:10:41.056Z,15.43
2023-04-18T21:13:13.124Z,15.26
2023-04-18T21:15:55.010Z,15.23
2023-04-18T21:18:31.128Z,15.25
2023-04-18T21:21:08.730Z,15.30
2023-04-18T21:23:42.251Z,15.36
2023-04-18T21:26:17.016Z,15.31
2023-04-18T21:29:04.965Z,15.36
2023-04-18T21:31:34.291Z,15.34
2023-04-18T21:34:05.338Z,15.39
2023-04-18T21:39:27.110Z,15.62
2023-04-18T21:42:09.114Z,15.49
2023-04-18T21:44:36.745Z,15.45
2023-04-18T21:47:06.745Z,15.20
2023-04-18T21:49:56.760Z,15.06
2023-04-18T21:52:23.693Z,14.85
2023-04-18T21:54:59.244Z,14.90
2023-04-18T21:57:33.713Z,14.92
2023-04-18T22:00:16.750Z,14.84
2023-04-18T22:02:45.115Z,14.73
2023-04-18T22:05:20.169Z,15.02
2023-04-18T22:07:57.379Z,14.97
2023-04-18T22:10:26.201Z,14.89
2023-04-18T22:12:54.600Z,14.80
2023-04-18T22:15:22.115Z,14.91
2023-04-18T22:17:50.567Z,14.90
2023-04-18T22:20:23.762Z,14.69
2023-04-18T22:22:59.476Z,14.71
2023-04-18T22:25:31.416Z,14.71
2023-04-18T22:28:06.308Z,14.62
2023-04-18T22:30:41.327Z,14.69
2023-04-18T22:33:17.209Z,14.53
2023-04-18T22:35:44.104Z,14.39
2023-04-18T22:38:13.601Z,14.37
2023-04-18T22:40:41.787Z,14.31
2023-04-18T22:43:11.895Z,14.31
2023-04-18T22:45:45.043Z,14.25
2023-04-18T22:48:13.632Z,14.19
2023-04-18T22:50:43.802Z,14.21
2023-04-18T22:53:17.759Z,14.17
2023-04-18T22:55:55.634Z,14.08
2023-04-18T22:58:37.646Z,14.05
2023-04-18T23:01:04.647Z,14.03
2023-04-18T23:03:40.789Z,14.24
2023-04-18T23:06:08.250Z,14.39
2023-04-18T23:08:44.396Z,14.50
2023-04-18T23:11:13.693Z,14.61
2023-04-18T23:13:52.008Z,14.67
2023-04-18T23:16:18.968Z,14.72
2023-04-18T23:18:45.938Z,14.80
2023-04-18T23:21:17.896Z,14.72
2023-04-18T23:23:52.660Z,14.85
2023-04-18T23:26:22.646Z,14.75
2023-04-18T23:29:18.788Z,14.76
2023-04-18T23:31:45.749Z,15.27
2023-04-18T23:34:18.565Z,15.54
2023-04-18T23:36:53.455Z,15.45
2023-04-18T23:39:21.847Z,15.02
2023-04-18T23:41:56.038Z,14.97
2023-04-18T23:44:23.298Z,15.04
2023-04-18T23:46:50.947Z,15.33
2023-04-18T23:49:17.949Z,15.18
2023-04-18T23:54:34.350Z,15.09
2023-04-18T23:57:02.032Z,15.21
2023-04-18T23:59:28.969Z,15.04
